createdAt,value
2018-07-08T08:22:34.612Z,23.70
2018-07-08T08:25:04.171Z,23.70
2018-07-08T08:30:02.811Z,23.60
2018-07-08T08:32:32.350Z,23.60
2018-07-08T08:40:03.067Z,23.80
2018-07-08T08:45:02.265Z,23.90
2018-07-08T08:50:01.652Z,24.10
2018-07-08T08:55:00.502Z,24.30
2018-07-08T08:57:30.022Z,24.30
2018-07-08T08:59:59.559Z,24.40
2018-07-08T09:04:58.573Z,24.50
2018-07-08T09:14:55.382Z,24.50
2018-07-08T09:22:23.521Z,24.30
2018-07-08T09:24:53.079Z,24.30
2018-07-08T09:34:49.856Z,24.50
2018-07-08T09:39:48.806Z,24.50
2018-07-08T09:42:18.384Z,24.60
2018-07-08T09:44:48.388Z,24.50
2018-07-08T09:54:45.146Z,24.50
2018-07-08T10:04:42.058Z,24.60
2018-07-08T10:07:11.872Z,24.60
2018-07-08T10:12:10.504Z,24.60
2018-07-08T10:17:09.194Z,24.70
2018-07-08T10:29:39.180Z,24.80
2018-07-08T10:37:06.901Z,24.80
2018-07-08T10:44:34.591Z,24.90
2018-07-08T10:52:02.349Z,25.00
2018-07-08T10:57:00.957Z,25.10
2018-07-08T10:59:31.486Z,25.10
2018-07-08T11:02:01.020Z,25.10
2018-07-08T11:04:30.560Z,25.20
2018-07-08T11:09:29.193Z,25.30
2018-07-08T11:11:58.759Z,25.30
2018-07-08T11:16:57.419Z,25.30
2018-07-08T11:26:54.216Z,25.40
2018-07-08T11:31:52.866Z,25.30
2018-07-08T11:39:20.591Z,25.50
2018-07-08T11:46:48.593Z,25.60
2018-07-08T11:49:18.141Z,25.60
2018-07-08T11:51:47.690Z,25.60
2018-07-08T11:54:17.411Z,25.50
2018-07-08T11:59:16.076Z,25.50
2018-07-08T12:01:46.315Z,25.70
2018-07-08T12:04:16.127Z,25.60
2018-07-08T12:09:15.012Z,25.60
2018-07-08T12:14:14.173Z,25.70
2018-07-08T12:24:11.134Z,26.00
2018-07-08T12:29:09.766Z,25.90
2018-07-08T12:36:38.648Z,26.00
2018-07-08T12:44:08.514Z,26.10
2018-07-08T12:54:06.710Z,26.20
2018-07-08T12:59:05.525Z,26.10
2018-07-08T13:04:04.632Z,26.20
2018-07-08T13:09:03.830Z,26.30
2018-07-08T13:11:33.388Z,26.40
2018-07-08T13:16:31.969Z,26.50
2018-07-08T13:21:30.595Z,26.60
2018-07-08T13:26:29.212Z,26.70
2018-07-08T13:28:59.013Z,26.70
2018-07-08T13:33:57.626Z,26.70
2018-07-08T13:36:27.312Z,26.60
2018-07-08T13:46:24.211Z,26.50
2018-07-08T13:53:52.041Z,26.60
2018-07-08T13:58:52.132Z,26.50
2018-07-08T14:03:50.749Z,26.60
2018-07-08T14:13:47.672Z,26.50
2018-07-08T14:16:17.224Z,26.60
2018-07-08T14:18:46.818Z,26.60
2018-07-08T14:23:45.887Z,26.60
2018-07-08T14:26:15.424Z,26.50
2018-07-08T14:31:14.186Z,26.40
2018-07-08T14:41:11.356Z,26.40
2018-07-08T14:43:41.514Z,26.30
2018-07-08T14:46:11.460Z,26.30
2018-07-08T14:48:41.001Z,26.30
2018-07-08T14:53:39.632Z,26.30
2018-07-08T14:56:09.189Z,26.30
2018-07-08T15:01:07.852Z,26.20
2018-07-08T15:03:37.408Z,26.30
2018-07-08T15:08:42.543Z,26.20
2018-07-08T15:11:12.108Z,26.20
2018-07-08T15:16:10.882Z,26.20
2018-07-08T15:18:40.296Z,26.20
2018-07-08T15:31:06.938Z,26.20
2018-07-08T15:36:05.572Z,26.10
2018-07-08T15:38:35.538Z,26.10
2018-07-08T15:46:03.873Z,25.90
2018-07-08T15:51:02.490Z,26.00
2018-07-08T15:56:01.076Z,26.00
2018-07-08T15:58:30.593Z,25.90
2018-07-08T16:03:29.255Z,25.90
2018-07-08T16:10:57.622Z,25.80
2018-07-08T16:18:25.736Z,25.70
2018-07-08T16:20:55.606Z,25.80
2018-07-08T16:23:25.171Z,25.70
2018-07-08T16:25:54.767Z,25.70
2018-07-08T16:28:24.284Z,25.80
2018-07-08T16:30:53.854Z,25.70
2018-07-08T16:35:54.797Z,25.70
2018-07-08T16:38:24.925Z,25.60
2018-07-08T16:45:54.585Z,25.70
2018-07-08T16:55:51.683Z,25.50
2018-07-08T17:00:50.469Z,24.90
2018-07-08T17:03:20.421Z,24.70
2018-07-08T17:08:19.074Z,24.40
2018-07-08T17:15:46.764Z,24.30
2018-07-08T17:20:45.402Z,24.40
2018-07-08T17:23:15.020Z,24.70
2018-07-08T17:33:11.831Z,25.20
2018-07-08T17:40:40.080Z,25.30
2018-07-08T17:45:38.876Z,25.30
2018-07-08T17:48:08.416Z,25.30
2018-07-08T17:53:07.036Z,25.30
2018-07-08T18:00:35.238Z,25.40
2018-07-08T18:05:33.923Z,25.40
2018-07-08T18:08:03.450Z,25.40
2018-07-08T18:13:02.085Z,25.40
2018-07-08T18:18:00.762Z,25.40
2018-07-08T18:20:30.860Z,25.30
2018-07-08T18:27:58.758Z,25.30
2018-07-08T18:32:57.697Z,25.40
2018-07-08T18:35:27.229Z,25.30
2018-07-08T18:37:56.796Z,25.30
2018-07-08T18:42:55.476Z,25.30
2018-07-08T18:45:25.046Z,25.30
2018-07-08T18:52:52.795Z,25.30
2018-07-08T18:55:22.329Z,25.30
2018-07-08T18:57:51.869Z,25.30
2018-07-08T19:07:48.705Z,25.30
2018-07-08T19:10:18.235Z,25.30
2018-07-08T19:12:47.781Z,25.30
2018-07-08T19:15:17.588Z,25.30
2018-07-08T19:27:43.493Z,25.20
2018-07-08T19:42:38.477Z,25.10
2018-07-08T19:52:35.354Z,25.00
2018-07-08T19:57:33.970Z,25.00
2018-07-08T20:02:32.634Z,25.10
2018-07-08T20:05:02.219Z,25.10
2018-07-08T20:07:31.813Z,25.10
2018-07-08T20:10:01.997Z,25.10
2018-07-08T20:15:01.828Z,25.00
2018-07-08T20:22:30.859Z,25.00
2018-07-08T20:25:00.432Z,25.00
2018-07-08T20:29:59.080Z,25.00
2018-07-08T20:37:27.488Z,25.00
2018-07-08T20:44:55.845Z,24.90
2018-07-08T20:49:54.956Z,24.90
2018-07-08T20:57:22.681Z,24.90
2018-07-08T20:59:53.512Z,24.80
2018-07-08T21:07:21.568Z,24.80
2018-07-08T21:09:51.160Z,24.80
2018-07-08T21:14:49.833Z,24.80
2018-07-08T21:19:49.192Z,24.70
2018-07-08T21:22:19.382Z,24.80
2018-07-08T21:27:18.378Z,24.70
2018-07-08T21:32:17.209Z,24.70
2018-07-08T21:34:46.805Z,24.70
2018-07-08T21:37:16.716Z,24.70
2018-07-08T21:47:13.491Z,24.60
2018-07-08T21:52:12.124Z,24.60
2018-07-08T21:54:41.649Z,24.50
2018-07-08T21:59:40.436Z,24.50
2018-07-08T22:04:40.429Z,24.50
2018-07-08T22:09:44.615Z,24.50
2018-07-08T22:14:43.297Z,24.50
2018-07-08T22:24:41.088Z,24.40
2018-07-08T22:29:39.726Z,24.40
2018-07-08T22:37:07.424Z,24.40
2018-07-08T22:39:37.024Z,24.30
2018-07-08T22:42:06.550Z,24.30
2018-07-08T22:52:03.368Z,24.30
2018-07-08T22:54:32.912Z,24.30
2018-07-08T22:57:02.463Z,24.30
2018-07-08T23:07:09.834Z,24.20
2018-07-08T23:09:39.376Z,24.10
2018-07-08T23:14:38.003Z,24.10
2018-07-08T23:32:02.634Z,24.10
2018-07-08T23:37:01.232Z,24.00
2018-07-08T23:41:59.845Z,24.00
2018-07-08T23:44:29.364Z,24.00
2018-07-08T23:49:27.989Z,24.00
2018-07-08T23:51:57.505Z,23.90
